Flight Track Log - Related Links

Times and Time Zones

All times are in EDT time to prevent confusion due to time zone crossing. See the GJS3710 flight status page for this flight to view local times or setup timezone preferences in your user account.

Time Position Orientation Groundspeed Altitude Reporting Facility
EDT Latitude Longitude Course Direction KTS MPH feet Rate Location/Type
Wed 09:56:37 AM 41.9167 -87.8833 154° Southeast 181 208 2,600  Level Chicago TRACON
Wed 09:57:37 AM 41.8667 -87.8500 154° Southeast 229 264 4,700 2,202 Climbing Chicago TRACON
Wed 09:58:26 AM 41.8233 -87.7975 138° Southeast 241 277 6,600 2,324 Climbing Chicago Center
Wed 09:59:28 AM 41.8092 -87.6997 101° East 291 335 9,000 2,516 Climbing Chicago Center
Wed 10:00:30 AM 41.8294 -87.5958 75° East 289 333 11,800 2,565 Climbing Chicago Center
Wed 10:01:32 AM 41.8528 -87.4875 74° East 301 346 14,300 1,935 Climbing Chicago Center
Wed 10:02:34 AM 41.8664 -87.3675 81° East 330 380 15,800 1,632 Climbing Chicago Center
Wed 10:03:37 AM 41.8603 -87.2011 93° East 371 427 17,700 1,440 Climbing Chicago Center
Wed 10:04:39 AM 41.8558 -87.0525 92° East 396 456 18,800 1,161 Climbing Chicago Center
Wed 10:05:41 AM 41.8506 -86.8956 93° East 419 482 20,100 1,452 Climbing Chicago Center
Wed 10:06:43 AM 41.8444 -86.7367 93° East 428 493 21,800 1,645 Climbing Chicago Center
Wed 10:07:45 AM 41.8389 -86.5539 92° East 437 503 23,500 1,452 Climbing Chicago Center
Wed 10:08:47 AM 41.8319 -86.3900 93° East 442 509 24,800 1,210 Climbing Chicago Center
Wed 10:09:49 AM 41.8261 -86.2211 93° East 450 518 26,000 1,065 Climbing Chicago Center
Wed 10:10:51 AM 41.8192 -86.0481 93° East 463 533 27,000 968 Climbing Chicago Center
Wed 10:11:53 AM 41.8117 -85.8725 93° East 471 542 28,000 968 Climbing Chicago Center
Wed 10:12:55 AM 41.8047 -85.6942 93° East 478 550 29,000 1,008 Climbing Chicago Center
Wed 10:13:58 AM 41.7969 -85.5114 93° East 483 556 30,100 1,056 Climbing Chicago Center
Wed 10:15:00 AM 41.7894 -85.3267 93° East 486 559 31,200 1,113 Climbing Chicago Center
Wed 10:16:02 AM 41.7786 -85.1086 94° East 485 558 32,400 1,016 Climbing Chicago Center
Wed 10:17:04 AM 41.7694 -84.9311 94° East 475 547 33,300 871 Climbing Chicago Center
Wed 10:18:06 AM 41.7603 -84.7494 94° East 486 559 34,200 871 Climbing Chicago Center
Wed 10:19:08 AM 41.7506 -84.5686 94° East 486 559 35,100 774 Climbing Chicago Center
Wed 10:20:10 AM 41.7408 -84.3892 94° East 484 557 35,800 677 Climbing Chicago Center
Wed 10:21:12 AM 41.7311 -84.2094 94° East 486 559 36,500 677 Climbing Chicago Center
Wed 10:22:14 AM 41.7183 -83.9922 94° East 488 562 37,200 629 Climbing Chicago Center
Wed 10:23:16 AM 41.7075 -83.8103 94° East 490 564 37,800 613 Climbing Chicago Center
Wed 10:24:31 AM 41.6853 -83.5806 97° East 483 556 38,600 533 Climbing Cleveland Center
Wed 10:25:31 AM 41.6436 -83.4092 108° East 483 556 39,000 200 Climbing Cleveland Center
Wed 10:26:31 AM 41.6019 -83.2378 108° East 483 556 39,000  Level Cleveland Center
Wed 10:27:31 AM 41.5658 -83.0781 107° East 491 565 39,000  Level Cleveland Center
Wed 10:28:31 AM 41.5236 -82.9072 108° East 491 565 39,000  Level Cleveland Center
Wed 10:29:31 AM 41.4792 -82.7283 108° East 491 565 39,000  Level Cleveland Center
Wed 10:30:31 AM 41.4306 -82.5383 109° East 491 565 39,000  Level Cleveland Center
Wed 10:31:31 AM 41.3875 -82.3572 108° East 491 565 39,000  Level Cleveland Center
Wed 10:32:31 AM 41.3422 -82.1844 109° East 497 572 39,000  Level Cleveland Center
Wed 10:33:31 AM 41.3047 -82.0233 107° East 497 572 39,000  Level Cleveland Center
Wed 10:34:31 AM 41.2608 -81.8456 108° East 502 578 39,000  Level Cleveland Center
Wed 10:35:31 AM 41.2147 -81.6706 109° East 502 578 39,000  Level Cleveland Center
Wed 10:36:31 AM 41.1706 -81.4961 109° East 502 578 39,000  Level Cleveland Center
Wed 10:37:31 AM 41.1175 -81.3025 110° East 502 578 39,000  Level Cleveland Center
Wed 10:38:31 AM 41.0686 -81.1256 110° East 509 586 39,000  Level Cleveland Center
Wed 10:39:31 AM 41.0317 -80.9683 107° East 503 579 39,000  Level Cleveland Center
Wed 10:40:31 AM 40.9842 -80.7950 110° East 503 579 39,000  Level Cleveland Center
Wed 10:41:31 AM 40.9364 -80.6189 110° East 508 585 39,000  Level Cleveland Center
Wed 10:42:31 AM 40.8883 -80.4403 110° East 508 585 39,000  Level Cleveland Center
Wed 10:43:31 AM 40.8358 -80.2567 111° Southeast 501 577 39,000  Level Cleveland Center
Wed 10:44:31 AM 40.7792 -80.0869 114° Southeast 501 577 39,000  Level Cleveland Center
Wed 10:45:31 AM 40.7261 -79.9364 115° Southeast 501 577 39,000  Level Cleveland Center
Wed 10:46:31 AM 40.6667 -79.7728 116° Southeast 501 577 39,000  Level Cleveland Center
Wed 10:47:31 AM 40.6072 -79.6067 115° Southeast 501 577 39,000 -350 Level Cleveland Center
Wed 10:48:31 AM 40.5658 -79.4325 107° East 501 577 38,300 -900 Descending Cleveland Center
Wed 10:49:31 AM 40.5450 -79.2469 98° East 492 566 37,200 -1,450 Descending Cleveland Center
Wed 10:50:31 AM 40.5261 -79.0589 97° East 504 580 35,400 -1,850 Descending Cleveland Center
Wed 10:51:31 AM 40.5047 -78.8736 99° East 515 593 33,500 -1,900 Descending Cleveland Center
Wed 10:52:31 AM 40.4850 -78.6803 98° East 521 600 31,600 -1,976 Descending Cleveland Center
Wed 10:54:18 AM 40.4483 -78.3403 98° East 520 598 28,000 -1,964 Descending New York Center
Wed 10:55:19 AM 40.4269 -78.1522 98° East 525 604 26,100 -1,475 Descending New York Center
Wed 10:56:20 AM 40.4003 -77.9750 101° East 513 590 25,000 -555 Descending New York Center
Wed 10:57:18 AM 40.3733 -77.7978 101° East 499 574 25,000 -305 Level New York Center
Wed 10:58:18 AM 40.3439 -77.6231 102° East 494 568 24,400 -1,041 Descending New York Center
Wed 10:59:19 AM 40.3164 -77.4489 102° East 494 568 22,900 -1,650 Descending New York Center
Wed 11:00:18 AM 40.2825 -77.2714 104° East 472 543 21,100 -1,650 Descending New York Center
Wed 11:01:19 AM 40.2583 -77.1058 101° East 466 536 19,600 -1,438 Descending New York Center
Wed 11:02:19 AM 40.2314 -76.9456 102° East 454 522 18,200 -1,438 Descending New York Center
Wed 11:03:20 AM 40.2058 -76.7911 102° East 454 522 16,700 -1,488 Descending New York Center
Wed 11:04:20 AM 40.1817 -76.6531 103° East 433 498 15,200 -1,475 Descending New York Center
Wed 11:05:18 AM 40.1575 -76.5044 102° East 421 484 13,800 -1,576 Descending New York Center
Wed 11:06:18 AM 40.1294 -76.3500 103° East 416 479 12,100 -1,388 Descending New York Center
Wed 11:07:19 AM 40.1147 -76.2211 98° East 382 440 11,000 -1,261 Descending New York Center
Wed 11:08:17 AM 40.1075 -76.1067 95° East 334 384 9,600 -1,220 Descending New York Center
Wed 11:09:17 AM 40.0994 -76.0056 96° East 315 362 8,600 -793 Descending New York Center
Wed 11:10:18 AM 40.0939 -75.8939 94° East 310 357 8,000 -397 Descending New York Center
Wed 11:11:18 AM 40.0822 -75.7764 97° East 305 351 7,800 -605 Descending New York Center
Wed 11:12:17 AM 40.0758 -75.6808 95° East 298 343 6,800 -900 Descending New York Center
Wed 11:13:18 AM 40.0703 -75.5667 94° East 288 331 6,000 -393 Descending New York Center
Wed 11:14:19 AM 40.0678 -75.4742 92° East 288 331 6,000  Level New York Center
Wed 11:15:19 AM 40.0617 -75.3625 94° East 282 325 6,000  Level New York Center
Wed 11:16:10 AM 40.0667 -75.2833 85° East 217 250 6,000  Level Philadelphia TRACON
Wed 11:17:27 AM 40.0333 -75.2000 118° Southeast 234 269 6,000 -44 Level Philadelphia TRACON
Wed 11:18:27 AM 40.0000 -75.1167 118° Southeast 227 261 5,900 -641 Descending Philadelphia TRACON
Wed 11:19:10 AM 39.9833 -75.0667 113° Southeast 225 259 4,900 -1,046 Descending Philadelphia TRACON
Wed 11:20:16 AM 39.9500 -75.0000 123° Southeast 214 246 4,000 -700 Descending Philadelphia TRACON
Wed 11:21:10 AM 39.9167 -74.9667 143° Southeast 204 235 3,500 -526 Descending Philadelphia TRACON
Wed 11:22:10 AM 39.9167 -75.0167 270° West 164 189 3,000 -500 Descending Philadelphia TRACON
Wed 11:23:10 AM 39.9000 -75.0833 252° West 168 193 2,500 -571 Descending Philadelphia TRACON
Wed 11:24:16 AM 39.8833 -75.1333 247° West 133 153 1,800 -727 Descending Philadelphia TRACON
Wed 11:25:22 AM 39.8833 -75.1833 247° West 129 148 900 -818 Descending Philadelphia TRACON
Wed 11:26:00 AM 39.8667 -75.2333 247° West  Level FlightAware Approximate
Wed 11:28:00 AM 39.8667 -75.2333 247° West  Level FlightAware Approximate

Login

Don't have an account? Register now (free) for customized features, flight alerts, and more!